Time;durP1;ratioP1;P1;durP2;ratioP2;P2;SDS_P1;SDS_P2;PMS_P1;PMS_P2;Temp;Humidity;BMP_temperature;BMP_pressure;BME280_temperature;BME280_humidity;BME280_pressure;Samples;Min_cycle;Max_cycle;Signal;HPM_P1;HPM_P2
2022/07/24 00:01:15;;;;;;;5.03;4.35;;;;;;;30.45;36.45;97043.28;5073627;28;20028;-28
2022/07/24 00:03:41;;;;;;;4.78;4.22;;;;;;;30.45;36.39;97039.75;5073288;28;20074;-29
2022/07/24 00:06:06;;;;;;;4.55;4.15;;;;;;;30.47;36.45;97045.53;5073465;28;20474;-28
2022/07/24 00:08:32;;;;;;;4.40;4.00;;;;;;;30.45;36.58;97048.88;5073099;28;20038;-28
2022/07/24 00:10:57;;;;;;;4.40;3.95;;;;;;;30.39;36.61;97041.94;5073465;28;20052;-28
2022/07/24 00:13:22;;;;;;;5.05;4.28;;;;;;;30.42;36.81;97044.38;5073247;28;20024;-28
2022/07/24 00:15:48;;;;;;;4.80;4.20;;;;;;;30.47;36.40;97045.53;5073178;28;20093;-29
2022/07/24 00:18:13;;;;;;;4.90;3.90;;;;;;;30.44;36.97;97043.81;5073578;28;20020;-29
2022/07/24 00:20:39;;;;;;;4.20;3.80;;;;;;;30.43;36.66;97045.13;5073436;28;20021;-29
2022/07/24 00:23:04;;;;;;;4.35;3.95;;;;;;;30.43;36.70;97045.13;5073032;28;20024;-29
2022/07/24 00:25:30;;;;;;;4.50;4.10;;;;;;;30.41;36.82;97042.16;5072885;28;20017;-28
2022/07/24 00:27:55;;;;;;;7.03;4.57;;;;;;;30.42;36.64;97044.38;5073115;28;20020;-28
2022/07/24 00:30:21;;;;;;;5.10;4.60;;;;;;;30.39;37.12;97039.13;5073153;28;20078;-28
2022/07/24 00:32:46;;;;;;;5.50;5.00;;;;;;;30.39;37.15;97033.53;5072182;28;20553;-28
2022/07/24 00:35:13;;;;;;;4.97;4.47;;;;;;;30.40;36.74;97040.63;5073094;28;20040;-28
2022/07/24 00:37:38;;;;;;;8.23;5.07;;;;;;;30.38;36.79;97030.00;5073227;28;20423;-28
2022/07/24 00:40:04;;;;;;;5.38;4.70;;;;;;;30.40;37.17;97033.00;5072916;28;20016;-28
2022/07/24 00:42:30;;;;;;;4.53;4.13;;;;;;;30.39;37.26;97030.75;5073045;28;20047;-29
2022/07/24 00:44:55;;;;;;;5.25;4.75;;;;;;;30.39;37.28;97036.34;5073030;28;20561;-28
2022/07/24 00:47:21;;;;;;;5.95;4.35;;;;;;;30.39;36.96;97034.28;5072992;28;20024;-28
2022/07/24 00:49:46;;;;;;;4.30;3.90;;;;;;;30.38;37.15;97043.22;5072953;28;20120;-30
2022/07/24 00:52:12;;;;;;;6.38;4.43;;;;;;;30.40;36.95;97029.44;5072940;28;20056;-29
2022/07/24 00:54:38;;;;;;;5.82;4.60;;;;;;;30.39;37.08;97030.75;5073108;28;20028;-28
2022/07/24 00:57:03;;;;;;;4.60;4.20;;;;;;;30.38;37.10;97029.22;5072874;28;20021;-28
2022/07/24 00:59:29;;;;;;;5.13;4.50;;;;;;;30.39;37.08;97033.53;5072881;28;20024;-28
2022/07/24 01:01:55;;;;;;;6.05;4.60;;;;;;;30.40;37.29;97032.25;5072775;28;20034;-28
2022/07/24 01:04:20;;;;;;;6.50;4.70;;;;;;;30.36;37.17;97030.53;5072873;28;20020;-29
2022/07/24 01:06:47;;;;;;;6.00;4.47;;;;;;;30.39;37.17;97033.53;5073130;28;20107;-28
2022/07/24 01:09:13;;;;;;;5.65;4.85;;;;;;;30.39;37.39;97033.53;5072857;28;20135;-29
2022/07/24 01:11:39;;;;;;;5.75;4.55;;;;;;;30.36;37.25;97024.94;5072815;28;20512;-29
2022/07/24 01:14:08;;;;;;;4.75;4.32;;;;;;;30.35;37.72;97025.47;5073007;28;20025;-28
2022/07/24 01:16:34;;;;;;;5.63;5.10;;;;;;;30.36;37.46;97029.78;5073059;28;20050;-29
2022/07/24 01:19:00;;;;;;;5.93;4.60;;;;;;;30.36;37.68;97019.34;5072623;28;20025;-28
2022/07/24 01:21:25;;;;;;;5.18;4.60;;;;;;;30.34;37.62;97012.78;5072604;28;20531;-29
2022/07/24 01:23:51;;;;;;;5.15;4.35;;;;;;;30.36;37.57;97019.34;5072713;28;20073;-30
2022/07/24 01:26:17;;;;;;;6.53;4.60;;;;;;;30.35;37.90;97029.03;5072565;28;20028;-27
2022/07/24 01:28:43;;;;;;;5.47;4.82;;;;;;;30.33;37.78;97014.81;5072930;28;20028;-28
2022/07/24 01:31:08;;;;;;;4.93;4.43;;;;;;;30.35;37.86;97026.22;5072743;28;20035;-28
2022/07/24 01:33:34;;;;;;;5.20;4.70;;;;;;;30.35;37.79;97014.28;5072545;28;20037;-28
2022/07/24 01:35:59;;;;;;;4.88;4.28;;;;;;;30.35;38.56;97012.25;5072669;28;20020;-28
2022/07/24 01:38:25;;;;;;;5.57;4.80;;;;;;;30.36;38.04;97013.75;5075191;28;20040;-28
2022/07/24 01:40:50;;;;;;;5.40;4.90;;;;;;;30.38;38.73;97007.59;5076016;28;20012;-28
2022/07/24 01:43:16;;;;;;;5.40;4.90;;;;;;;30.36;38.67;97008.16;5076042;28;20401;-28
2022/07/24 01:45:41;;;;;;;5.22;4.50;;;;;;;30.34;38.79;97013.53;5076076;28;20016;-28
2022/07/24 01:48:07;;;;;;;5.53;4.80;;;;;;;30.35;38.19;97006.63;5075857;28;20017;-28
2022/07/24 01:50:32;;;;;;;5.22;4.65;;;;;;;30.34;38.72;97013.53;5075839;28;20463;-27
2022/07/24 01:52:58;;;;;;;4.75;4.22;;;;;;;30.36;38.87;97008.16;5075820;28;20047;-28
2022/07/24 01:55:24;;;;;;;5.53;4.90;;;;;;;30.36;38.27;97008.16;5075749;28;20039;-29
2022/07/24 01:57:49;;;;;;;5.32;4.78;;;;;;;30.35;38.83;97006.63;5075853;28;20028;-29
2022/07/24 02:00:16;;;;;;;5.18;4.55;;;;;;;30.35;38.96;97008.69;5075865;28;20023;-28
2022/07/24 02:02:43;;;;;;;5.57;4.70;;;;;;;30.36;38.84;97010.19;5075740;28;20029;-28
2022/07/24 02:05:12;;;;;;;5.30;4.50;;;;;;;30.36;38.96;97002.53;5075875;28;20025;-28
2022/07/24 02:07:38;;;;;;;4.90;4.50;;;;;;;30.34;39.27;97009.97;5075497;28;20035;-30
2022/07/24 02:10:04;;;;;;;5.00;4.50;;;;;;;30.37;38.97;97003.28;5075363;28;20041;-28
2022/07/24 02:12:30;;;;;;;4.78;4.38;;;;;;;30.37;39.41;97006.09;5075733;28;20020;-28
2022/07/24 02:14:55;;;;;;;5.03;4.55;;;;;;;30.36;38.96;97008.16;5075487;28;20089;-28
2022/07/24 02:17:20;;;;;;;6.15;5.57;;;;;;;30.36;38.98;97010.19;5075269;28;20020;-28
2022/07/24 02:19:46;;;;;;;5.25;4.75;;;;;;;30.36;39.48;97007.38;5075734;28;20050;-28
2022/07/24 02:22:11;;;;;;;5.40;4.85;;;;;;;30.38;39.30;96998.44;5075499;28;20474;-28
2022/07/24 02:24:37;;;;;;;5.15;4.65;;;;;;;30.33;39.34;97011.28;5075215;28;20327;-28
2022/07/24 02:27:02;;;;;;;5.00;4.60;;;;;;;30.32;39.33;97007.72;5075339;28;20032;-28
2022/07/24 02:29:28;;;;;;;6.05;4.60;;;;;;;30.33;39.52;97009.22;5075050;28;20020;-28
2022/07/24 02:31:53;;;;;;;5.22;4.65;;;;;;;30.31;39.89;97005.47;5075187;28;20021;-29
2022/07/24 02:34:19;;;;;;;5.60;4.97;;;;;;;30.28;39.57;97001.75;5075061;28;20065;-29
2022/07/24 02:36:44;;;;;;;4.72;4.32;;;;;;;30.28;39.73;97004.53;5075159;28;20025;-29
2022/07/24 02:39:10;;;;;;;5.10;4.60;;;;;;;30.33;40.02;97003.63;5074972;28;20029;-29
2022/07/24 02:41:35;;;;;;;5.47;4.97;;;;;;;30.36;39.82;97004.59;5074367;28;20135;-28
2022/07/24 02:44:01;;;;;;;5.10;4.70;;;;;;;30.33;40.02;97003.63;5075051;28;20492;-28
2022/07/24 02:46:26;;;;;;;5.15;4.72;;;;;;;30.33;40.34;97002.88;5075162;28;20024;-28
2022/07/24 02:48:52;;;;;;;5.30;4.80;;;;;;;30.33;39.68;97014.81;5074427;28;20028;-29
2022/07/24 02:51:17;;;;;;;4.95;4.55;;;;;;;30.35;39.93;97001.03;5074851;28;20103;-28
2022/07/24 02:53:43;;;;;;;5.05;4.55;;;;;;;30.29;40.40;97000.41;5074644;28;20021;-28
2022/07/24 02:56:08;;;;;;;6.65;4.45;;;;;;;30.28;40.61;97004.53;5074605;28;20074;-28
2022/07/24 02:58:34;;;;;;;5.68;4.78;;;;;;;30.31;40.12;96997.81;5074640;28;20078;-28
2022/07/24 03:01:00;;;;;;;5.43;4.80;;;;;;;30.32;40.56;97002.13;5074522;28;20031;-28
2022/07/24 03:03:25;;;;;;;6.00;5.40;;;;;;;30.32;39.98;96996.53;5073200;28;20117;-28
2022/07/24 03:05:51;;;;;;;5.18;4.68;;;;;;;30.32;40.04;97001.38;5074450;28;20103;-29
2022/07/24 03:08:16;;;;;;;5.85;5.22;;;;;;;30.33;40.09;97003.63;5074345;28;20385;-28
2022/07/24 03:10:42;;;;;;;5.38;4.88;;;;;;;30.33;40.05;96998.03;5074062;28;20033;-29
2022/07/24 03:13:08;;;;;;;5.57;5.00;;;;;;;30.30;40.85;97001.16;5074423;28;20029;-28
2022/07/24 03:15:33;;;;;;;6.22;5.07;;;;;;;30.31;40.42;97006.22;5074203;28;20116;-28
2022/07/24 03:17:59;;;;;;;5.60;5.05;;;;;;;30.31;40.90;96999.88;5074287;28;20036;-30
2022/07/24 03:20:27;;;;;;;5.00;4.60;;;;;;;30.30;40.98;96999.13;5074064;28;20028;-28
2022/07/24 03:22:53;;;;;;;5.10;4.45;;;;;;;30.33;40.27;97000.84;5074186;28;20054;-29
2022/07/24 03:25:19;;;;;;;5.15;4.75;;;;;;;30.35;40.36;97003.09;5074070;28;20115;-28
2022/07/24 03:27:48;;;;;;;6.85;4.57;;;;;;;30.30;41.24;96998.38;5074325;28;20491;-28
2022/07/24 03:30:14;;;;;;;5.28;4.78;;;;;;;30.30;40.86;96998.38;5073894;28;20025;-29
2022/07/24 03:32:40;;;;;;;5.57;4.95;;;;;;;30.32;40.42;96987.38;5073491;28;20417;-28
2022/07/24 03:35:06;;;;;;;5.90;5.13;;;;;;;30.28;40.61;96987.75;5073821;28;20028;-29
2022/07/24 03:37:31;;;;;;;5.65;5.05;;;;;;;30.27;41.30;97011.44;5073879;28;20047;-28
2022/07/24 03:39:57;;;;;;;5.78;5.18;;;;;;;30.27;41.12;96993.88;5073531;28;20050;-28
2022/07/24 03:42:22;;;;;;;5.88;5.25;;;;;;;30.27;41.65;96993.88;5073766;28;20020;-28
2022/07/24 03:44:48;;;;;;;5.68;5.18;;;;;;;30.29;41.38;96997.63;5073723;28;20364;-28
2022/07/24 03:47:13;;;;;;;5.95;5.35;;;;;;;30.31;41.27;96991.47;5073576;28;20024;-28
2022/07/24 03:49:42;;;;;;;5.68;5.18;;;;;;;30.29;40.94;96992.03;5073558;28;20051;-28
2022/07/24 03:52:08;;;;;;;5.90;4.88;;;;;;;30.30;41.19;96992.78;5073535;28;20016;-29
2022/07/24 03:54:33;;;;;;;6.40;5.18;;;;;;;30.30;40.93;96995.56;5073585;28;20099;-28
2022/07/24 03:56:59;;;;;;;5.75;4.75;;;;;;;30.28;41.41;96993.34;5073654;28;20104;-28
2022/07/24 03:59:24;;;;;;;6.35;5.13;;;;;;;30.28;41.47;96993.34;5072892;28;20016;-29
2022/07/24 04:01:50;;;;;;;5.93;5.03;;;;;;;30.29;41.33;96996.88;5073594;28;20024;-28
2022/07/24 04:04:15;;;;;;;5.47;4.82;;;;;;;30.25;41.66;96991.63;5073423;28;20051;-28
2022/07/24 04:06:41;;;;;;;5.20;4.68;;;;;;;30.25;41.56;96996.47;5073314;28;20477;-28
2022/07/24 04:09:07;;;;;;;5.53;5.03;;;;;;;30.22;41.76;96992.72;5073154;28;20070;-28
2022/07/24 04:11:33;;;;;;;6.03;5.18;;;;;;;30.23;41.97;96994.22;5073739;28;20432;-28
2022/07/24 04:13:59;;;;;;;5.55;4.85;;;;;;;30.25;41.77;97002.06;5073171;28;20020;-29
2022/07/24 04:16:24;;;;;;;5.90;5.30;;;;;;;30.26;41.55;96995.94;5073400;28;20509;-29
2022/07/24 04:18:50;;;;;;;5.50;5.00;;;;;;;30.26;41.40;97009.16;5073315;28;20055;-29
2022/07/24 04:21:16;;;;;;;6.13;5.53;;;;;;;30.25;42.28;97016.06;5073310;28;20040;-28
2022/07/24 04:23:41;;;;;;;5.43;4.90;;;;;;;30.23;42.11;97022.19;5073289;28;20109;-28
2022/07/24 04:26:07;;;;;;;5.80;5.15;;;;;;;30.23;41.72;97013.06;5073205;28;20095;-29
2022/07/24 04:28:33;;;;;;;5.45;4.88;;;;;;;30.23;41.95;97025.00;5073186;28;20386;-29
2022/07/24 04:30:58;;;;;;;5.68;5.07;;;;;;;30.20;42.08;97028.13;5073123;28;20021;-28
2022/07/24 04:33:24;;;;;;;5.57;5.07;;;;;;;30.20;41.87;97020.47;5073102;28;20029;-29
2022/07/24 04:35:49;;;;;;;5.43;4.93;;;;;;;30.22;41.89;97017.91;5073342;28;20040;-29
2022/07/24 04:38:15;;;;;;;5.50;5.10;;;;;;;30.23;41.93;97016.59;5073197;28;20111;-29
2022/07/24 04:40:42;;;;;;;5.50;5.00;;;;;;;30.22;41.69;97012.28;5073077;28;20020;-28
2022/07/24 04:43:08;;;;;;;5.53;5.03;;;;;;;30.22;42.03;97012.28;5073128;28;20024;-28
2022/07/24 04:45:34;;;;;;;5.97;5.47;;;;;;;30.22;41.89;97015.09;5073009;28;20032;-28
2022/07/24 04:47:59;;;;;;;5.78;5.20;;;;;;;30.18;42.04;97014.66;5073219;28;20032;-28
2022/07/24 04:50:24;;;;;;;5.07;4.68;;;;;;;30.20;41.67;97017.69;5073021;28;20021;-28
2022/07/24 04:52:50;;;;;;;6.80;5.28;;;;;;;30.20;41.81;97012.09;5072965;28;20036;-28
2022/07/24 04:55:15;;;;;;;6.35;5.13;;;;;;;30.22;41.90;97014.34;5072858;28;20050;-28
2022/07/24 04:57:41;;;;;;;5.30;4.90;;;;;;;30.20;41.87;97016.94;5072398;28;20102;-28
2022/07/24 05:00:10;;;;;;;5.78;5.28;;;;;;;30.20;41.75;97009.28;5072906;28;20078;-28
2022/07/24 05:02:35;;;;;;;6.20;5.13;;;;;;;30.23;42.08;97016.59;5073029;28;20023;-29
2022/07/24 05:05:01;;;;;;;6.05;5.45;;;;;;;30.23;41.66;97011.00;5072766;28;20433;-28
2022/07/24 05:07:26;;;;;;;5.55;4.97;;;;;;;30.19;42.20;97010.59;5072934;28;20093;-29
2022/07/24 05:09:52;;;;;;;5.15;4.65;;;;;;;30.20;41.74;97009.28;5072463;28;20487;-28
2022/07/24 05:12:17;;;;;;;6.28;5.25;;;;;;;30.21;41.94;97012.84;5074211;28;20021;-28
2022/07/24 05:14:43;;;;;;;6.40;5.07;;;;;;;30.24;41.65;97012.50;5077035;28;20021;-28
2022/07/24 05:17:08;;;;;;;5.45;4.95;;;;;;;30.19;42.11;97010.59;5076572;28;20066;-28
2022/07/24 05:19:34;;;;;;;5.70;5.20;;;;;;;30.17;41.89;97007.56;5075987;28;20024;-29
2022/07/24 05:22:00;;;;;;;5.88;5.35;;;;;;;30.20;41.62;97014.88;5076177;28;20477;-28
2022/07/24 05:24:26;;;;;;;5.93;5.22;;;;;;;30.20;42.27;97019.72;5076391;28;20031;-28
2022/07/24 05:26:52;;;;;;;6.85;5.38;;;;;;;30.17;42.24;97018.75;5076530;28;20021;-28
2022/07/24 05:29:17;;;;;;;5.35;4.85;;;;;;;30.21;41.79;97018.44;5074888;28;20024;-28
2022/07/24 05:31:43;;;;;;;5.90;5.18;;;;;;;30.21;42.35;97008.00;5076081;28;20036;-29
2022/07/24 05:34:08;;;;;;;6.18;5.57;;;;;;;30.24;42.22;97018.09;5076258;28;20371;-29
2022/07/24 05:36:34;;;;;;;5.97;4.82;;;;;;;30.22;42.46;97014.34;5076187;28;20095;-28
2022/07/24 05:38:59;;;;;;;6.03;5.30;;;;;;;30.18;41.95;97019.50;5075969;28;20031;-28
2022/07/24 05:41:25;;;;;;;6.20;5.60;;;;;;;30.19;41.84;97018.97;5076456;28;20013;-30
2022/07/24 05:43:50;;;;;;;6.18;5.22;;;;;;;30.18;41.85;97013.91;5076288;28;20531;-28
2022/07/24 05:46:16;;;;;;;5.63;5.10;;;;;;;30.19;42.24;97021.78;5076034;28;20090;-28
2022/07/24 05:48:41;;;;;;;5.85;5.32;;;;;;;30.20;41.97;97016.94;5075931;28;20024;-28
2022/07/24 05:51:07;;;;;;;6.50;5.38;;;;;;;30.14;42.25;97014.28;5076052;28;20052;-28
2022/07/24 05:53:32;;;;;;;5.68;5.18;;;;;;;30.14;42.14;97011.47;5075746;28;20017;-28
2022/07/24 05:55:57;;;;;;;5.53;5.10;;;;;;;30.19;42.36;97016.19;5075910;28;20063;-28
2022/07/24 05:58:23;;;;;;;6.80;5.07;;;;;;;30.19;42.19;97015.44;5075734;28;20126;-27
2022/07/24 06:00:48;;;;;;;5.47;4.88;;;;;;;30.18;42.42;97009.06;5075970;28;20470;-28
2022/07/24 06:03:14;;;;;;;5.50;5.00;;;;;;;30.15;42.34;97012.22;5079080;28;20028;-30
2022/07/24 06:05:39;;;;;;;5.65;5.10;;;;;;;30.17;42.54;97018.00;5093870;28;20040;-28
2022/07/24 06:08:05;;;;;;;5.72;5.22;;;;;;;30.19;42.18;97018.22;5094057;28;20453;-28
2022/07/24 06:10:31;;;;;;;5.53;5.03;;;;;;;30.12;42.63;97019.66;5093514;28;20085;-28
2022/07/24 06:12:57;;;;;;;5.50;4.85;;;;;;;30.19;42.47;97013.38;5093770;28;20032;-28
2022/07/24 06:15:31;;;;;;;5.80;5.20;;;;;;;30.14;42.37;97016.31;5093252;28;20019;-28
2022/07/24 06:17:58;;;;;;;5.93;5.43;;;;;;;30.18;42.27;97014.66;5093727;28;20020;-28
2022/07/24 06:20:24;;;;;;;5.70;4.53;;;;;;;30.17;42.28;97015.97;5092177;28;20020;-29
2022/07/24 06:22:50;;;;;;;5.88;5.28;;;;;;;30.18;42.16;97020.28;5092611;28;20580;-28
2022/07/24 06:25:17;;;;;;;5.68;4.90;;;;;;;30.17;42.10;97018.75;5093511;28;20058;-28
2022/07/24 06:27:48;;;;;;;5.88;5.22;;;;;;;30.13;42.49;97021.16;5093221;28;20028;-28
2022/07/24 06:30:26;;;;;;;5.15;4.65;;;;;;;30.18;41.87;97031.47;5093448;28;20023;-28
2022/07/24 06:32:57;;;;;;;5.40;4.90;;;;;;;30.15;42.56;97032.56;5093633;28;20454;-28
2022/07/24 06:35:24;;;;;;;5.47;4.97;;;;;;;30.17;42.56;97024.34;5093435;28;20028;-28
2022/07/24 06:37:49;;;;;;;6.40;5.32;;;;;;;30.10;42.54;97027.09;5093299;28;20043;-29
2022/07/24 06:40:16;;;;;;;5.25;4.70;;;;;;;30.16;42.32;97025.69;5091583;28;20024;-28
2022/07/24 06:42:42;;;;;;;7.20;5.35;;;;;;;30.17;41.96;97024.34;5093146;28;20084;-28
2022/07/24 06:45:08;;;;;;;8.18;4.78;;;;;;;30.13;42.43;97034.41;5093215;28;20032;-28
2022/07/24 06:47:33;;;;;;;5.85;5.35;;;;;;;30.08;42.47;97026.88;5093049;28;20039;-28
2022/07/24 06:49:59;;;;;;;6.18;4.95;;;;;;;30.06;42.72;97038.59;5092647;28;20027;-28
2022/07/24 06:52:24;;;;;;;5.97;4.72;;;;;;;30.12;42.63;97028.06;5092747;28;20032;-28
2022/07/24 06:54:49;;;;;;;6.28;5.15;;;;;;;30.09;42.55;97033.97;5092963;28;20502;-29
2022/07/24 06:57:16;;;;;;;6.63;5.68;;;;;;;30.18;42.35;97037.06;5092943;28;20043;-31
2022/07/24 06:59:42;;;;;;;5.65;5.15;;;;;;;30.17;42.28;97032.75;5092647;28;20043;-28
2022/07/24 07:02:07;;;;;;;7.28;5.28;;;;;;;30.08;42.29;97024.09;5092516;28;20027;-29
2022/07/24 07:04:33;;;;;;;6.75;5.40;;;;;;;30.20;42.17;97028.88;5091751;28;20032;-28
2022/07/24 07:06:58;;;;;;;5.40;4.90;;;;;;;30.18;41.76;97028.66;5092676;28;20233;-28
2022/07/24 07:09:24;;;;;;;5.88;5.30;;;;;;;30.20;42.05;97028.88;5092233;28;20044;-28
2022/07/24 07:11:49;;;;;;;5.57;4.63;;;;;;;30.16;41.84;97031.28;5091130;28;20061;-29
2022/07/24 07:14:15;;;;;;;7.75;4.72;;;;;;;30.03;41.71;97024.97;5092541;28;20028;-28
2022/07/24 07:16:40;;;;;;;7.32;4.38;;;;;;;29.98;42.13;97024.56;5092130;28;20035;-28
2022/07/24 07:19:10;;;;;;;5.57;5.07;;;;;;;30.06;41.66;97030.22;5091180;28;20036;-29
2022/07/24 07:21:37;;;;;;;5.50;5.00;;;;;;;30.13;41.33;97026.00;5090540;28;20020;-28
2022/07/24 07:24:03;;;;;;;5.40;4.90;;;;;;;30.17;41.55;97029.94;5092485;28;20103;-27
2022/07/24 07:26:29;;;;;;;6.35;4.97;;;;;;;29.98;40.64;97026.59;5092399;28;20104;-28
2022/07/24 07:28:54;;;;;;;6.53;4.85;;;;;;;29.98;40.00;97024.56;5091986;28;20109;-29
2022/07/24 07:31:20;;;;;;;5.65;5.05;;;;;;;30.08;40.43;97030.44;5091905;28;20020;-28
2022/07/24 07:33:45;;;;;;;5.13;4.65;;;;;;;30.16;40.06;97025.69;5090777;28;20448;-29
2022/07/24 07:36:11;;;;;;;5.43;4.90;;;;;;;30.10;39.32;97027.84;5092300;28;20035;-27
2022/07/24 07:38:37;;;;;;;5.43;4.93;;;;;;;30.06;39.26;97024.63;5091708;28;20024;-28
2022/07/24 07:41:03;;;;;;;6.82;4.85;;;;;;;29.91;39.64;97027.25;5091905;28;20065;-28
2022/07/24 07:43:29;;;;;;;6.85;5.38;;;;;;;29.70;39.36;97032.00;5091885;28;20034;-28
2022/07/24 07:45:55;;;;;;;6.68;4.82;;;;;;;29.66;40.67;97029.56;5092168;28;20448;-30
2022/07/24 07:48:20;;;;;;;6.53;4.72;;;;;;;29.87;38.67;97033.16;5091830;28;20023;-28
2022/07/24 07:50:46;;;;;;;5.78;5.15;;;;;;;29.54;40.64;97023.47;5091442;28;20028;-29
2022/07/24 07:53:11;;;;;;;5.07;4.55;;;;;;;29.74;39.89;97026.84;5091427;28;20530;-28
2022/07/24 07:55:37;;;;;;;7.60;5.05;;;;;;;29.93;38.69;97027.44;5091609;28;20024;-28
2022/07/24 07:58:03;;;;;;;5.18;4.57;;;;;;;29.79;38.83;97035.13;5091482;28;20477;-29
2022/07/24 08:00:29;;;;;;;5.05;4.55;;;;;;;29.97;37.85;97036.28;5090044;28;20051;-29
2022/07/24 08:02:54;;;;;;;9.20;4.90;;;;;;;29.85;37.61;97035.75;5089828;28;20182;-28
2022/07/24 08:05:20;;;;;;;5.75;4.80;;;;;;;29.85;38.15;97038.53;5091143;28;20020;-28
2022/07/24 08:07:46;;;;;;;5.05;4.50;;;;;;;29.98;37.25;97030.16;5091466;28;20572;-28
2022/07/24 08:10:12;;;;;;;5.07;4.68;;;;;;;30.09;37.17;97026.34;5091293;28;20131;-28
2022/07/24 08:12:38;;;;;;;7.00;4.53;;;;;;;30.20;37.54;97039.31;5091531;28;20103;-28
2022/07/24 08:15:04;;;;;;;6.32;5.03;;;;;;;29.93;36.88;97027.44;5091244;28;20024;-28
2022/07/24 08:17:29;;;;;;;4.65;4.25;;;;;;;29.81;38.19;97034.56;5091685;28;20077;-28
2022/07/24 08:19:55;;;;;;;4.82;4.40;;;;;;;29.70;36.73;97032.75;5091605;28;20413;-29
2022/07/24 08:22:21;;;;;;;5.97;4.72;;;;;;;29.76;37.78;97036.19;5089870;28;20054;-29
2022/07/24 08:24:46;;;;;;;7.78;4.55;;;;;;;29.87;37.64;97038.00;5091561;28;20031;-28
2022/07/24 08:27:12;;;;;;;8.50;4.47;;;;;;;29.83;36.89;97038.31;5091027;28;20030;-28
2022/07/24 08:29:37;;;;;;;7.10;4.82;;;;;;;29.88;37.28;97031.13;5091377;28;20031;-28
2022/07/24 08:32:04;;;;;;;5.95;4.20;;;;;;;29.61;35.00;97027.63;5091031;28;20385;-28
2022/07/24 08:34:29;;;;;;;5.28;4.60;;;;;;;29.84;37.56;97030.69;5091511;28;20020;-29
2022/07/24 08:36:55;;;;;;;6.18;4.57;;;;;;;30.09;37.10;97029.13;5091330;28;20077;-28
2022/07/24 08:39:20;;;;;;;6.63;4.40;;;;;;;30.04;35.51;97032.06;5084504;28;20032;-28
2022/07/24 08:41:45;;;;;;;5.53;4.35;;;;;;;30.07;36.76;97034.50;5073071;28;20024;-28
2022/07/24 08:44:11;;;;;;;6.43;5.05;;;;;;;30.19;37.03;97027.38;5075596;28;20037;-28
2022/07/24 08:46:38;;;;;;;5.78;4.55;;;;;;;30.12;35.72;97022.47;5083262;28;20046;-28
2022/07/24 08:49:10;;;;;;;8.68;4.85;;;;;;;30.14;36.37;97033.09;5085897;28;20028;-28
2022/07/24 08:51:38;;;;;;;7.00;4.75;;;;;;;30.03;35.19;97024.97;5085496;28;20051;-29
2022/07/24 08:54:04;;;;;;;7.32;5.07;;;;;;;30.13;36.41;97029.56;5087991;28;20070;-30
2022/07/24 08:56:30;;;;;;;8.00;4.70;;;;;;;30.07;36.06;97023.31;5088327;28;20031;-28
2022/07/24 08:58:55;;;;;;;5.15;4.30;;;;;;;30.04;36.15;97029.28;5083615;28;20024;-28
2022/07/24 09:01:21;;;;;;;6.97;5.18;;;;;;;29.93;36.83;97027.44;5097143;28;20542;-28
2022/07/24 09:03:47;;;;;;;5.10;4.60;;;;;;;30.08;34.93;97019.25;5094752;28;20063;-28
2022/07/24 09:06:14;;;;;;;5.47;4.70;;;;;;;30.20;35.93;97030.91;5077814;28;20036;-28
2022/07/24 09:08:41;;;;;;;5.38;4.63;;;;;;;30.02;36.02;97029.06;5082889;28;20020;-28
2022/07/24 09:11:09;;;;;;;5.53;4.93;;;;;;;30.16;35.49;97036.88;5096026;28;20035;-28
2022/07/24 09:16:26;;;;;;;4.78;4.25;;;;;;;30.21;35.15;97030.38;5095268;28;20100;-28
2022/07/24 09:19:03;;;;;;;5.15;4.72;;;;;;;30.04;35.19;97021.63;5095231;28;20020;-28
2022/07/24 09:21:33;;;;;;;6.72;4.90;;;;;;;30.05;35.68;97028.72;5095713;28;20039;-28
2022/07/24 09:24:02;;;;;;;6.60;5.05;;;;;;;29.86;36.49;97022.50;5096181;28;20020;-28
2022/07/24 09:26:45;;;;;;;4.90;4.50;;;;;;;29.87;36.25;97024.78;5096404;28;20020;-28
2022/07/24 09:29:12;;;;;;;5.63;4.70;;;;;;;29.83;36.40;97032.72;5096650;28;20020;-28
2022/07/24 09:31:49;;;;;;;5.10;4.60;;;;;;;30.14;35.41;97030.31;5096423;28;20357;-28
2022/07/24 09:34:15;;;;;;;5.53;4.78;;;;;;;29.93;36.20;97024.63;5096838;28;20462;-28
2022/07/24 09:36:40;;;;;;;6.60;4.57;;;;;;;30.18;35.61;97030.72;5096685;28;20039;-28
2022/07/24 09:39:06;;;;;;;5.43;4.93;;;;;;;30.22;35.03;97026.28;5096683;28;20020;-29
2022/07/24 09:41:51;;;;;;;6.47;4.70;;;;;;;30.22;35.36;97031.13;5096249;28;20020;-28
2022/07/24 09:44:17;;;;;;;7.88;4.97;;;;;;;30.21;35.24;97027.56;5096464;28;20114;-28
2022/07/24 09:46:54;;;;;;;5.25;4.72;;;;;;;30.22;35.87;97019.94;5096321;28;20471;-28
2022/07/24 09:49:20;;;;;;;5.78;5.03;;;;;;;30.27;34.93;97016.28;5087396;28;20363;-28
2022/07/24 09:52:05;;;;;;;6.50;4.80;;;;;;;29.96;35.64;97012.41;5075839;28;20020;-29
2022/07/24 09:54:32;;;;;;;5.43;4.93;;;;;;;30.19;35.06;97013.38;5075696;28;20355;-28
2022/07/24 09:57:14;;;;;;;6.05;4.78;;;;;;;30.21;34.79;97010.78;5075366;28;20445;-28
2022/07/24 09:59:41;;;;;;;5.40;4.50;;;;;;;30.23;35.24;97013.06;5074435;28;20017;-28
2022/07/24 10:02:07;;;;;;;5.78;4.95;;;;;;;30.28;35.06;97012.94;5075886;28;20032;-28
2022/07/24 10:04:34;;;;;;;7.00;5.00;;;;;;;30.27;35.50;97005.84;5075691;28;20111;-29
2022/07/24 10:07:02;;;;;;;8.25;5.32;;;;;;;30.33;35.44;97014.06;5075559;28;20035;-28
2022/07/24 10:09:30;;;;;;;6.50;5.07;;;;;;;30.25;34.92;97018.84;5075362;28;20502;-28
2022/07/24 10:11:57;;;;;;;5.32;4.82;;;;;;;30.17;34.96;97013.16;5075560;28;20086;-28
2022/07/24 10:14:24;;;;;;;5.35;4.50;;;;;;;30.27;34.92;97017.03;5075528;28;20470;-29
2022/07/24 10:17:06;;;;;;;6.00;4.85;;;;;;;30.37;35.14;97014.50;5075398;28;20078;-28
2022/07/24 10:19:45;;;;;;;5.30;4.83;;;;;;;30.28;35.25;97014.97;5075680;28;20024;-28
2022/07/24 10:22:22;;;;;;;5.00;4.55;;;;;;;30.36;34.72;97013.75;5075398;28;20100;-28
2022/07/24 10:25:07;;;;;;;5.72;4.70;;;;;;;30.33;35.04;97003.63;5075407;28;20024;-28
2022/07/24 10:27:35;;;;;;;7.75;5.10;;;;;;;30.36;35.08;97002.53;5075296;28;20035;-28
2022/07/24 10:30:05;;;;;;;5.20;4.80;;;;;;;30.22;34.84;96997.56;5074990;28;20016;-28
2022/07/24 10:32:33;;;;;;;7.13;4.90;;;;;;;30.25;35.16;96996.47;5075346;28;20035;-28
2022/07/24 10:35:05;;;;;;;9.45;4.90;;;;;;;30.34;34.99;96999.53;5075162;28;20036;-28
2022/07/24 10:37:33;;;;;;;7.82;5.13;;;;;;;30.34;34.67;96993.94;5075143;28;20103;-29
2022/07/24 10:40:28;;;;;;;7.50;5.25;;;;;;;30.40;34.52;96996.63;5072483;28;20047;-28
2022/07/24 10:43:08;;;;;;;6.35;5.10;;;;;;;30.38;34.26;96993.59;5075116;28;20024;-28
2022/07/24 10:45:53;;;;;;;11.20;5.28;;;;;;;30.28;34.14;96992.59;5074991;28;20035;-28
2022/07/24 10:48:27;;;;;;;6.85;4.97;;;;;;;30.42;34.61;96984.84;5074876;28;20478;-29
2022/07/24 10:51:17;;;;;;;5.82;4.75;;;;;;;30.35;34.73;96989.09;5074847;28;20032;-29
2022/07/24 10:53:48;;;;;;;6.53;4.70;;;;;;;30.42;34.49;96987.66;5074714;28;20119;-28
2022/07/24 10:56:24;;;;;;;7.68;4.90;;;;;;;30.41;33.73;96975.72;5074780;28;20036;-28
2022/07/24 10:58:55;;;;;;;5.45;4.63;;;;;;;30.30;34.06;96978.78;5074635;28;20020;-28
2022/07/24 11:01:34;;;;;;;5.43;4.93;;;;;;;30.46;33.60;96976.88;5074539;28;20060;-29
2022/07/24 11:04:22;;;;;;;6.13;4.47;;;;;;;30.49;33.87;96981.38;5074392;28;20048;-28
2022/07/24 11:06:51;;;;;;;7.00;5.47;;;;;;;30.46;33.68;96976.88;5074205;28;20497;-28
2022/07/24 11:09:18;;;;;;;5.22;4.47;;;;;;;30.35;34.07;96981.44;5074090;28;20051;-28
2022/07/24 11:11:53;;;;;;;4.97;4.45;;;;;;;30.41;33.44;96970.13;5073305;28;20029;-28
2022/07/24 11:14:23;;;;;;;6.97;4.82;;;;;;;30.42;33.14;96966.00;5074294;28;20520;-29
2022/07/24 11:16:49;;;;;;;5.22;4.65;;;;;;;30.50;33.31;96966.84;5074503;28;20082;-28
2022/07/24 11:19:15;;;;;;;5.50;4.75;;;;;;;30.38;33.60;96965.63;5074252;28;20029;-28
2022/07/24 11:21:46;;;;;;;5.30;4.80;;;;;;;30.31;33.52;96960.69;5074076;28;20031;-28
2022/07/24 11:24:23;;;;;;;6.95;4.95;;;;;;;30.35;33.71;96958.31;5074651;28;20020;-29
2022/07/24 11:26:58;;;;;;;5.47;4.85;;;;;;;30.43;33.48;96952.78;5072775;28;20427;-28
2022/07/24 11:29:28;;;;;;;6.68;5.03;;;;;;;30.23;33.90;96955.06;5074007;28;20020;-28
2022/07/24 11:31:56;;;;;;;5.40;4.90;;;;;;;30.31;33.51;96950.25;5073886;28;20107;-28
2022/07/24 11:34:22;;;;;;;5.53;4.75;;;;;;;30.28;33.72;96950.63;5074197;28;20031;-28
2022/07/24 11:36:51;;;;;;;5.50;4.90;;;;;;;30.42;33.54;96948.47;5074070;28;20042;-28